sensor_id;sensor_type;location;lat;lon;timestamp;temperature;humidity
75170;SHT31;63749;49.186;9.222;2024-02-14T00:01:42;3.00;96.00
75170;SHT31;63749;49.186;9.222;2024-02-14T00:04:08;3.04;95.97
75170;SHT31;63749;49.186;9.222;2024-02-14T00:06:37;3.17;95.73
75170;SHT31;63749;49.186;9.222;2024-02-14T00:09:02;3.18;95.63
75170;SHT31;63749;49.186;9.222;2024-02-14T00:11:28;3.21;95.32
75170;SHT31;63749;49.186;9.222;2024-02-14T00:13:53;3.26;95.11
75170;SHT31;63749;49.186;9.222;2024-02-14T00:16:21;3.20;95.00
75170;SHT31;63749;49.186;9.222;2024-02-14T00:18:46;3.21;94.98
75170;SHT31;63749;49.186;9.222;2024-02-14T00:21:12;3.20;94.89
75170;SHT31;63749;49.186;9.222;2024-02-14T00:23:38;3.08;94.71
75170;SHT31;63749;49.186;9.222;2024-02-14T00:26:03;3.03;95.00
75170;SHT31;63749;49.186;9.222;2024-02-14T00:28:29;2.97;95.23
75170;SHT31;63749;49.186;9.222;2024-02-14T00:30:54;2.93;95.10
75170;SHT31;63749;49.186;9.222;2024-02-14T00:33:19;2.85;95.25
75170;SHT31;63749;49.186;9.222;2024-02-14T00:35:46;2.76;95.39
75170;SHT31;63749;49.186;9.222;2024-02-14T00:38:12;2.72;95.62
75170;SHT31;63749;49.186;9.222;2024-02-14T00:40:37;2.66;95.90
75170;SHT31;63749;49.186;9.222;2024-02-14T00:43:02;2.66;95.98
75170;SHT31;63749;49.186;9.222;2024-02-14T00:45:28;2.73;96.26
75170;SHT31;63749;49.186;9.222;2024-02-14T00:47:53;2.66;96.02
75170;SHT31;63749;49.186;9.222;2024-02-14T00:50:18;2.66;96.09
75170;SHT31;63749;49.186;9.222;2024-02-14T00:52:44;2.68;96.14
75170;SHT31;63749;49.186;9.222;2024-02-14T00:55:09;2.71;96.25
75170;SHT31;63749;49.186;9.222;2024-02-14T00:57:34;2.80;96.15
75170;SHT31;63749;49.186;9.222;2024-02-14T01:00:00;2.83;95.95
75170;SHT31;63749;49.186;9.222;2024-02-14T01:02:25;2.83;95.98
75170;SHT31;63749;49.186;9.222;2024-02-14T01:04:51;2.93;96.13
75170;SHT31;63749;49.186;9.222;2024-02-14T01:07:17;3.08;96.01
75170;SHT31;63749;49.186;9.222;2024-02-14T01:09:42;3.26;95.65
75170;SHT31;63749;49.186;9.222;2024-02-14T01:12:08;3.38;95.32
75170;SHT31;63749;49.186;9.222;2024-02-14T01:14:33;3.48;95.33
75170;SHT31;63749;49.186;9.222;2024-02-14T01:16:58;3.58;95.02
75170;SHT31;63749;49.186;9.222;2024-02-14T01:19:24;3.66;94.89
75170;SHT31;63749;49.186;9.222;2024-02-14T01:21:53;3.72;94.13
75170;SHT31;63749;49.186;9.222;2024-02-14T01:24:19;3.81;93.96
75170;SHT31;63749;49.186;9.222;2024-02-14T01:26:44;3.93;93.74
75170;SHT31;63749;49.186;9.222;2024-02-14T01:29:09;4.02;93.73
75170;SHT31;63749;49.186;9.222;2024-02-14T01:31:35;4.07;93.03
75170;SHT31;63749;49.186;9.222;2024-02-14T01:34:00;4.11;92.79
75170;SHT31;63749;49.186;9.222;2024-02-14T01:36:28;4.23;92.88
75170;SHT31;63749;49.186;9.222;2024-02-14T01:38:54;4.27;92.75
75170;SHT31;63749;49.186;9.222;2024-02-14T01:41:19;4.36;92.63
75170;SHT31;63749;49.186;9.222;2024-02-14T01:43:49;4.38;91.76
75170;SHT31;63749;49.186;9.222;2024-02-14T01:46:14;4.46;91.53
75170;SHT31;63749;49.186;9.222;2024-02-14T01:48:41;4.54;91.62
75170;SHT31;63749;49.186;9.222;2024-02-14T01:51:08;4.58;91.52
75170;SHT31;63749;49.186;9.222;2024-02-14T01:53:37;4.61;90.63
75170;SHT31;63749;49.186;9.222;2024-02-14T01:56:03;4.71;91.34
75170;SHT31;63749;49.186;9.222;2024-02-14T01:58:29;4.74;90.99
75170;SHT31;63749;49.186;9.222;2024-02-14T02:00:55;4.79;90.65
75170;SHT31;63749;49.186;9.222;2024-02-14T02:03:25;4.82;90.56
75170;SHT31;63749;49.186;9.222;2024-02-14T02:05:51;4.89;90.58
75170;SHT31;63749;49.186;9.222;2024-02-14T02:08:17;4.91;90.39
75170;SHT31;63749;49.186;9.222;2024-02-14T02:10:42;4.95;90.11
75170;SHT31;63749;49.186;9.222;2024-02-14T02:13:11;4.93;89.81
75170;SHT31;63749;49.186;9.222;2024-02-14T02:15:36;4.96;89.30
75170;SHT31;63749;49.186;9.222;2024-02-14T02:18:03;4.99;89.25
75170;SHT31;63749;49.186;9.222;2024-02-14T02:20:33;5.02;89.60
75170;SHT31;63749;49.186;9.222;2024-02-14T02:22:59;5.04;89.30
75170;SHT31;63749;49.186;9.222;2024-02-14T02:25:25;5.04;89.82
75170;SHT31;63749;49.186;9.222;2024-02-14T02:27:52;5.09;89.63
75170;SHT31;63749;49.186;9.222;2024-02-14T02:30:18;5.15;89.34
75170;SHT31;63749;49.186;9.222;2024-02-14T02:32:44;5.18;89.05
75170;SHT31;63749;49.186;9.222;2024-02-14T02:35:09;5.22;88.54
75170;SHT31;63749;49.186;9.222;2024-02-14T02:37:35;5.26;88.31
75170;SHT31;63749;49.186;9.222;2024-02-14T02:40:00;5.32;88.22
75170;SHT31;63749;49.186;9.222;2024-02-14T02:42:26;5.37;87.49
75170;SHT31;63749;49.186;9.222;2024-02-14T02:44:52;5.42;87.36
75170;SHT31;63749;49.186;9.222;2024-02-14T02:47:17;5.47;87.25
75170;SHT31;63749;49.186;9.222;2024-02-14T02:49:45;5.51;87.10
75170;SHT31;63749;49.186;9.222;2024-02-14T02:52:11;5.57;86.93
75170;SHT31;63749;49.186;9.222;2024-02-14T02:54:37;5.54;86.08
75170;SHT31;63749;49.186;9.222;2024-02-14T02:57:11;5.56;86.52
75170;SHT31;63749;49.186;9.222;2024-02-14T02:59:36;5.53;86.62
75170;SHT31;63749;49.186;9.222;2024-02-14T03:02:02;5.51;86.81
75170;SHT31;63749;49.186;9.222;2024-02-14T03:04:28;5.50;86.63
75170;SHT31;63749;49.186;9.222;2024-02-14T03:06:56;5.44;86.42
75170;SHT31;63749;49.186;9.222;2024-02-14T03:09:21;5.47;85.88
75170;SHT31;63749;49.186;9.222;2024-02-14T03:11:47;5.48;85.91
75170;SHT31;63749;49.186;9.222;2024-02-14T03:14:13;5.50;85.57
75170;SHT31;63749;49.186;9.222;2024-02-14T03:16:39;5.51;85.71
75170;SHT31;63749;49.186;9.222;2024-02-14T03:19:04;5.50;85.74
75170;SHT31;63749;49.186;9.222;2024-02-14T03:21:30;5.58;85.43
75170;SHT31;63749;49.186;9.222;2024-02-14T03:23:58;5.56;85.76
75170;SHT31;63749;49.186;9.222;2024-02-14T03:26:24;5.57;85.76
75170;SHT31;63749;49.186;9.222;2024-02-14T03:28:52;5.61;85.46
75170;SHT31;63749;49.186;9.222;2024-02-14T03:31:19;5.61;85.59
75170;SHT31;63749;49.186;9.222;2024-02-14T03:33:45;5.65;85.54
75170;SHT31;63749;49.186;9.222;2024-02-14T03:36:11;5.65;85.65
75170;SHT31;63749;49.186;9.222;2024-02-14T03:38:36;5.77;84.25
75170;SHT31;63749;49.186;9.222;2024-02-14T03:41:02;5.75;84.47
75170;SHT31;63749;49.186;9.222;2024-02-14T03:43:27;5.83;84.06
75170;SHT31;63749;49.186;9.222;2024-02-14T03:45:53;5.93;83.46
75170;SHT31;63749;49.186;9.222;2024-02-14T03:48:19;6.08;82.61
75170;SHT31;63749;49.186;9.222;2024-02-14T03:50:45;6.11;82.86
75170;SHT31;63749;49.186;9.222;2024-02-14T03:53:10;6.18;82.36
75170;SHT31;63749;49.186;9.222;2024-02-14T03:55:40;6.16;82.73
75170;SHT31;63749;49.186;9.222;2024-02-14T03:58:06;6.14;83.17
75170;SHT31;63749;49.186;9.222;2024-02-14T04:00:33;6.15;82.85
75170;SHT31;63749;49.186;9.222;2024-02-14T04:03:00;6.24;82.44
75170;SHT31;63749;49.186;9.222;2024-02-14T04:05:27;6.35;81.89
75170;SHT31;63749;49.186;9.222;2024-02-14T04:07:56;6.28;82.00
75170;SHT31;63749;49.186;9.222;2024-02-14T04:10:21;6.36;82.00
75170;SHT31;63749;49.186;9.222;2024-02-14T04:12:47;6.40;82.22
75170;SHT31;63749;49.186;9.222;2024-02-14T04:15:13;6.33;82.12
75170;SHT31;63749;49.186;9.222;2024-02-14T04:17:41;6.32;82.38
75170;SHT31;63749;49.186;9.222;2024-02-14T04:20:07;6.25;82.35
75170;SHT31;63749;49.186;9.222;2024-02-14T04:22:32;6.21;82.74
75170;SHT31;63749;49.186;9.222;2024-02-14T04:24:58;6.24;82.45
75170;SHT31;63749;49.186;9.222;2024-02-14T04:27:23;6.25;82.76
75170;SHT31;63749;49.186;9.222;2024-02-14T04:29:48;6.22;83.12
75170;SHT31;63749;49.186;9.222;2024-02-14T04:32:14;6.28;82.81
75170;SHT31;63749;49.186;9.222;2024-02-14T04:34:40;6.28;83.12
75170;SHT31;63749;49.186;9.222;2024-02-14T04:37:06;6.22;83.40
75170;SHT31;63749;49.186;9.222;2024-02-14T04:39:37;6.28;83.23
75170;SHT31;63749;49.186;9.222;2024-02-14T04:42:03;6.32;83.10
75170;SHT31;63749;49.186;9.222;2024-02-14T04:44:30;6.43;82.49
75170;SHT31;63749;49.186;9.222;2024-02-14T04:46:57;6.40;82.64
75170;SHT31;63749;49.186;9.222;2024-02-14T04:49:24;6.37;83.00
75170;SHT31;63749;49.186;9.222;2024-02-14T04:51:50;6.35;83.03
75170;SHT31;63749;49.186;9.222;2024-02-14T04:54:16;6.37;83.06
75170;SHT31;63749;49.186;9.222;2024-02-14T04:56:42;6.40;83.08
75170;SHT31;63749;49.186;9.222;2024-02-14T04:59:07;6.43;83.07
75170;SHT31;63749;49.186;9.222;2024-02-14T05:01:34;6.43;82.94
75170;SHT31;63749;49.186;9.222;2024-02-14T05:03:59;6.47;83.10
75170;SHT31;63749;49.186;9.222;2024-02-14T05:06:25;6.49;83.23
75170;SHT31;63749;49.186;9.222;2024-02-14T05:08:50;6.53;82.76
75170;SHT31;63749;49.186;9.222;2024-02-14T05:11:17;6.57;82.91
75170;SHT31;63749;49.186;9.222;2024-02-14T05:13:43;6.63;83.02
75170;SHT31;63749;49.186;9.222;2024-02-14T05:16:09;6.64;82.84
75170;SHT31;63749;49.186;9.222;2024-02-14T05:18:36;6.63;82.91
75170;SHT31;63749;49.186;9.222;2024-02-14T05:21:05;6.67;82.55
75170;SHT31;63749;49.186;9.222;2024-02-14T05:23:32;6.72;82.30
75170;SHT31;63749;49.186;9.222;2024-02-14T05:25:58;6.77;82.57
75170;SHT31;63749;49.186;9.222;2024-02-14T05:28:23;6.79;82.59
75170;SHT31;63749;49.186;9.222;2024-02-14T05:30:48;6.79;82.28
75170;SHT31;63749;49.186;9.222;2024-02-14T05:33:14;6.80;82.56
75170;SHT31;63749;49.186;9.222;2024-02-14T05:35:39;6.84;82.03
75170;SHT31;63749;49.186;9.222;2024-02-14T05:38:05;6.88;82.13
75170;SHT31;63749;49.186;9.222;2024-02-14T05:40:33;6.88;82.35
75170;SHT31;63749;49.186;9.222;2024-02-14T05:42:58;6.91;81.83
75170;SHT31;63749;49.186;9.222;2024-02-14T05:45:23;6.94;81.94
75170;SHT31;63749;49.186;9.222;2024-02-14T05:47:49;6.97;81.85
75170;SHT31;63749;49.186;9.222;2024-02-14T05:50:14;7.03;81.41
75170;SHT31;63749;49.186;9.222;2024-02-14T05:52:40;7.14;81.16
75170;SHT31;63749;49.186;9.222;2024-02-14T05:55:05;7.18;81.08
75170;SHT31;63749;49.186;9.222;2024-02-14T05:57:31;7.18;81.23
75170;SHT31;63749;49.186;9.222;2024-02-14T05:59:56;7.14;81.77
75170;SHT31;63749;49.186;9.222;2024-02-14T06:02:22;7.12;81.56
75170;SHT31;63749;49.186;9.222;2024-02-14T06:04:47;7.14;81.67
75170;SHT31;63749;49.186;9.222;2024-02-14T06:07:13;7.14;81.59
75170;SHT31;63749;49.186;9.222;2024-02-14T06:09:38;7.16;81.65
75170;SHT31;63749;49.186;9.222;2024-02-14T06:12:04;7.19;81.26
75170;SHT31;63749;49.186;9.222;2024-02-14T06:14:30;7.24;80.88
75170;SHT31;63749;49.186;9.222;2024-02-14T06:16:56;7.32;80.58
75170;SHT31;63749;49.186;9.222;2024-02-14T06:19:22;7.35;80.01
75170;SHT31;63749;49.186;9.222;2024-02-14T06:21:48;7.46;79.69
75170;SHT31;63749;49.186;9.222;2024-02-14T06:24:13;7.46;79.80
75170;SHT31;63749;49.186;9.222;2024-02-14T06:26:39;7.38;80.09
75170;SHT31;63749;49.186;9.222;2024-02-14T06:29:04;7.52;79.13
75170;SHT31;63749;49.186;9.222;2024-02-14T06:31:30;7.69;78.53
75170;SHT31;63749;49.186;9.222;2024-02-14T06:33:55;7.72;78.74
75170;SHT31;63749;49.186;9.222;2024-02-14T06:36:20;7.67;78.73
75170;SHT31;63749;49.186;9.222;2024-02-14T06:38:46;7.56;79.50
75170;SHT31;63749;49.186;9.222;2024-02-14T06:41:12;7.61;79.10
75170;SHT31;63749;49.186;9.222;2024-02-14T06:43:37;7.61;79.15
75170;SHT31;63749;49.186;9.222;2024-02-14T06:46:05;7.52;79.76
75170;SHT31;63749;49.186;9.222;2024-02-14T06:48:30;7.53;79.84
75170;SHT31;63749;49.186;9.222;2024-02-14T06:50:55;7.56;79.79
75170;SHT31;63749;49.186;9.222;2024-02-14T06:53:21;7.82;79.08
75170;SHT31;63749;49.186;9.222;2024-02-14T06:55:46;7.74;78.95
75170;SHT31;63749;49.186;9.222;2024-02-14T06:58:11;7.70;79.36
75170;SHT31;63749;49.186;9.222;2024-02-14T07:00:37;7.69;79.28
75170;SHT31;63749;49.186;9.222;2024-02-14T07:03:02;7.67;79.17
75170;SHT31;63749;49.186;9.222;2024-02-14T07:05:28;7.73;78.87
75170;SHT31;63749;49.186;9.222;2024-02-14T07:07:54;7.86;79.20
75170;SHT31;63749;49.186;9.222;2024-02-14T07:10:20;7.94;78.42
75170;SHT31;63749;49.186;9.222;2024-02-14T07:12:45;7.97;78.47
75170;SHT31;63749;49.186;9.222;2024-02-14T07:15:10;7.83;78.48
75170;SHT31;63749;49.186;9.222;2024-02-14T07:17:36;7.72;79.11
75170;SHT31;63749;49.186;9.222;2024-02-14T07:20:04;7.66;79.14
75170;SHT31;63749;49.186;9.222;2024-02-14T07:22:29;7.77;78.58
75170;SHT31;63749;49.186;9.222;2024-02-14T07:24:59;7.74;78.84
75170;SHT31;63749;49.186;9.222;2024-02-14T07:27:24;7.80;78.70
75170;SHT31;63749;49.186;9.222;2024-02-14T07:29:50;7.93;77.98
75170;SHT31;63749;49.186;9.222;2024-02-14T07:32:15;7.93;78.15
75170;SHT31;63749;49.186;9.222;2024-02-14T07:34:42;7.98;78.75
75170;SHT31;63749;49.186;9.222;2024-02-14T07:37:07;8.10;78.16
75170;SHT31;63749;49.186;9.222;2024-02-14T07:39:32;8.33;76.85
75170;SHT31;63749;49.186;9.222;2024-02-14T07:42:00;8.40;76.90
75170;SHT31;63749;49.186;9.222;2024-02-14T07:44:26;8.42;76.52
75170;SHT31;63749;49.186;9.222;2024-02-14T07:46:52;8.66;75.37
75170;SHT31;63749;49.186;9.222;2024-02-14T07:49:18;8.82;74.67
75170;SHT31;63749;49.186;9.222;2024-02-14T07:51:44;8.72;74.77
75170;SHT31;63749;49.186;9.222;2024-02-14T07:54:09;8.69;74.77
75170;SHT31;63749;49.186;9.222;2024-02-14T07:56:35;8.72;74.76
75170;SHT31;63749;49.186;9.222;2024-02-14T07:59:00;8.72;75.30
75170;SHT31;63749;49.186;9.222;2024-02-14T08:01:25;8.76;75.29
75170;SHT31;63749;49.186;9.222;2024-02-14T08:03:51;8.69;75.88
75170;SHT31;63749;49.186;9.222;2024-02-14T08:06:16;8.63;75.62
75170;SHT31;63749;49.186;9.222;2024-02-14T08:08:42;8.68;75.94
75170;SHT31;63749;49.186;9.222;2024-02-14T08:11:09;8.54;76.49
75170;SHT31;63749;49.186;9.222;2024-02-14T08:13:34;8.51;76.50
75170;SHT31;63749;49.186;9.222;2024-02-14T08:16:00;8.65;75.84
75170;SHT31;63749;49.186;9.222;2024-02-14T08:18:25;8.82;75.73
75170;SHT31;63749;49.186;9.222;2024-02-14T08:20:53;8.89;75.89
75170;SHT31;63749;49.186;9.222;2024-02-14T08:23:18;8.97;75.04
75170;SHT31;63749;49.186;9.222;2024-02-14T08:25:45;9.00;75.43
75170;SHT31;63749;49.186;9.222;2024-02-14T08:28:11;9.09;75.05
75170;SHT31;63749;49.186;9.222;2024-02-14T08:30:36;9.13;75.02
75170;SHT31;63749;49.186;9.222;2024-02-14T08:33:03;9.17;75.27
75170;SHT31;63749;49.186;9.222;2024-02-14T08:35:28;9.33;74.61
75170;SHT31;63749;49.186;9.222;2024-02-14T08:37:54;9.38;73.94
75170;SHT31;63749;49.186;9.222;2024-02-14T08:40:19;9.45;73.92
75170;SHT31;63749;49.186;9.222;2024-02-14T08:42:44;9.37;74.96
75170;SHT31;63749;49.186;9.222;2024-02-14T08:45:10;9.41;74.58
75170;SHT31;63749;49.186;9.222;2024-02-14T08:47:35;9.50;74.34
75170;SHT31;63749;49.186;9.222;2024-02-14T08:50:03;9.59;73.71
75170;SHT31;63749;49.186;9.222;2024-02-14T08:52:28;9.55;73.73
75170;SHT31;63749;49.186;9.222;2024-02-14T08:54:53;9.41;74.20
75170;SHT31;63749;49.186;9.222;2024-02-14T08:57:19;9.31;74.71
75170;SHT31;63749;49.186;9.222;2024-02-14T08:59:44;9.44;74.22
75170;SHT31;63749;49.186;9.222;2024-02-14T09:02:12;9.58;73.39
75170;SHT31;63749;49.186;9.222;2024-02-14T09:04:39;9.72;72.57
75170;SHT31;63749;49.186;9.222;2024-02-14T09:07:04;9.72;73.40
75170;SHT31;63749;49.186;9.222;2024-02-14T09:09:29;9.89;72.96
75170;SHT31;63749;49.186;9.222;2024-02-14T09:11:55;10.06;74.60
75170;SHT31;63749;49.186;9.222;2024-02-14T09:14:20;10.12;71.62
75170;SHT31;63749;49.186;9.222;2024-02-14T09:16:45;10.13;71.73
75170;SHT31;63749;49.186;9.222;2024-02-14T09:19:11;10.29;72.71
75170;SHT31;63749;49.186;9.222;2024-02-14T09:21:38;10.37;71.81
75170;SHT31;63749;49.186;9.222;2024-02-14T09:24:04;10.46;71.27
75170;SHT31;63749;49.186;9.222;2024-02-14T09:26:30;10.46;71.34
75170;SHT31;63749;49.186;9.222;2024-02-14T09:28:55;10.51;71.06
75170;SHT31;63749;49.186;9.222;2024-02-14T09:31:21;10.53;71.54
75170;SHT31;63749;49.186;9.222;2024-02-14T09:33:47;10.56;71.66
75170;SHT31;63749;49.186;9.222;2024-02-14T09:36:13;11.02;72.10
75170;SHT31;63749;49.186;9.222;2024-02-14T09:38:40;11.01;70.22
75170;SHT31;63749;49.186;9.222;2024-02-14T09:43:38;11.22;69.97
75170;SHT31;63749;49.186;9.222;2024-02-14T09:46:06;11.26;69.24
75170;SHT31;63749;49.186;9.222;2024-02-14T09:48:32;11.56;69.94
75170;SHT31;63749;49.186;9.222;2024-02-14T09:50:58;11.50;69.69
75170;SHT31;63749;49.186;9.222;2024-02-14T09:53:26;11.29;69.21
75170;SHT31;63749;49.186;9.222;2024-02-14T09:55:51;11.21;69.95
75170;SHT31;63749;49.186;9.222;2024-02-14T09:58:17;11.28;68.89
75170;SHT31;63749;49.186;9.222;2024-02-14T10:00:43;11.30;69.28
75170;SHT31;63749;49.186;9.222;2024-02-14T10:03:08;11.23;70.01
75170;SHT31;63749;49.186;9.222;2024-02-14T10:05:34;11.30;70.16
75170;SHT31;63749;49.186;9.222;2024-02-14T10:08:00;11.53;68.52
75170;SHT31;63749;49.186;9.222;2024-02-14T10:10:27;11.53;68.53
75170;SHT31;63749;49.186;9.222;2024-02-14T10:12:54;11.65;68.33
75170;SHT31;63749;49.186;9.222;2024-02-14T10:15:20;11.60;68.37
75170;SHT31;63749;49.186;9.222;2024-02-14T10:17:45;11.76;68.41
75170;SHT31;63749;49.186;9.222;2024-02-14T10:20:11;11.83;68.08
75170;SHT31;63749;49.186;9.222;2024-02-14T10:22:41;12.00;67.35
75170;SHT31;63749;49.186;9.222;2024-02-14T10:25:07;12.13;67.03
75170;SHT31;63749;49.186;9.222;2024-02-14T10:27:39;12.14;68.05
75170;SHT31;63749;49.186;9.222;2024-02-14T10:30:06;12.14;67.27
75170;SHT31;63749;49.186;9.222;2024-02-14T10:32:35;12.18;67.37
75170;SHT31;63749;49.186;9.222;2024-02-14T10:35:04;12.22;68.13
75170;SHT31;63749;49.186;9.222;2024-02-14T10:37:30;12.18;67.66
75170;SHT31;63749;49.186;9.222;2024-02-14T10:39:56;12.13;67.98
75170;SHT31;63749;49.186;9.222;2024-02-14T10:42:21;12.41;68.35
75170;SHT31;63749;49.186;9.222;2024-02-14T10:44:47;12.42;66.60
75170;SHT31;63749;49.186;9.222;2024-02-14T10:47:19;12.38;67.13
75170;SHT31;63749;49.186;9.222;2024-02-14T10:49:46;12.41;67.40
75170;SHT31;63749;49.186;9.222;2024-02-14T10:52:13;12.39;67.50
75170;SHT31;63749;49.186;9.222;2024-02-14T10:54:41;12.32;68.53
75170;SHT31;63749;49.186;9.222;2024-02-14T10:57:08;12.29;67.67
75170;SHT31;63749;49.186;9.222;2024-02-14T10:59:42;12.32;68.01
75170;SHT31;63749;49.186;9.222;2024-02-14T11:02:09;12.34;67.89
75170;SHT31;63749;49.186;9.222;2024-02-14T11:04:35;12.37;67.94
75170;SHT31;63749;49.186;9.222;2024-02-14T11:07:01;12.55;67.45
75170;SHT31;63749;49.186;9.222;2024-02-14T11:09:32;12.58;67.48
75170;SHT31;63749;49.186;9.222;2024-02-14T11:12:01;12.48;68.04
75170;SHT31;63749;49.186;9.222;2024-02-14T11:14:31;12.49;68.36
75170;SHT31;63749;49.186;9.222;2024-02-14T11:16:57;12.58;67.87
75170;SHT31;63749;49.186;9.222;2024-02-14T11:19:30;12.75;67.95
75170;SHT31;63749;49.186;9.222;2024-02-14T11:21:58;12.75;68.28
75170;SHT31;63749;49.186;9.222;2024-02-14T11:24:28;12.78;68.54
75170;SHT31;63749;49.186;9.222;2024-02-14T11:26:55;12.56;70.21
75170;SHT31;63749;49.186;9.222;2024-02-14T11:29:28;12.29;70.55
75170;SHT31;63749;49.186;9.222;2024-02-14T11:32:00;12.28;71.11
75170;SHT31;63749;49.186;9.222;2024-02-14T11:34:27;12.35;71.02
75170;SHT31;63749;49.186;9.222;2024-02-14T11:36:53;12.46;71.24
75170;SHT31;63749;49.186;9.222;2024-02-14T11:39:18;12.46;71.48
75170;SHT31;63749;49.186;9.222;2024-02-14T11:41:45;12.49;71.38
75170;SHT31;63749;49.186;9.222;2024-02-14T11:44:10;12.50;71.11
75170;SHT31;63749;49.186;9.222;2024-02-14T11:46:37;12.53;71.24
75170;SHT31;63749;49.186;9.222;2024-02-14T11:49:04;12.62;72.70
75170;SHT31;63749;49.186;9.222;2024-02-14T11:51:32;12.65;73.01
75170;SHT31;63749;49.186;9.222;2024-02-14T11:53:59;12.65;74.73
75170;SHT31;63749;49.186;9.222;2024-02-14T11:56:32;12.65;75.50
75170;SHT31;63749;49.186;9.222;2024-02-14T11:59:05;12.72;75.42
75170;SHT31;63749;49.186;9.222;2024-02-14T12:01:31;12.99;74.95
75170;SHT31;63749;49.186;9.222;2024-02-14T12:03:58;13.11;74.25
75170;SHT31;63749;49.186;9.222;2024-02-14T12:06:26;13.18;74.50
75170;SHT31;63749;49.186;9.222;2024-02-14T12:08:53;13.31;74.00
75170;SHT31;63749;49.186;9.222;2024-02-14T12:11:18;13.45;73.98
75170;SHT31;63749;49.186;9.222;2024-02-14T12:13:49;13.86;73.00
75170;SHT31;63749;49.186;9.222;2024-02-14T12:16:14;14.04;72.57
75170;SHT31;63749;49.186;9.222;2024-02-14T12:18:41;13.99;72.39
75170;SHT31;63749;49.186;9.222;2024-02-14T12:21:07;14.12;72.47
75170;SHT31;63749;49.186;9.222;2024-02-14T12:23:33;13.99;73.08
75170;SHT31;63749;49.186;9.222;2024-02-14T12:26:02;13.82;73.66
75170;SHT31;63749;49.186;9.222;2024-02-14T12:28:29;13.95;73.08
75170;SHT31;63749;49.186;9.222;2024-02-14T12:30:56;14.01;72.34
75170;SHT31;63749;49.186;9.222;2024-02-14T12:33:22;13.95;72.23
75170;SHT31;63749;49.186;9.222;2024-02-14T12:35:53;13.83;72.51
75170;SHT31;63749;49.186;9.222;2024-02-14T12:38:20;13.71;73.01
75170;SHT31;63749;49.186;9.222;2024-02-14T12:40:46;13.58;73.34
75170;SHT31;63749;49.186;9.222;2024-02-14T12:43:13;13.62;73.69
75170;SHT31;63749;49.186;9.222;2024-02-14T12:45:39;13.71;73.53
75170;SHT31;63749;49.186;9.222;2024-02-14T12:48:08;13.65;73.73
75170;SHT31;63749;49.186;9.222;2024-02-14T12:50:35;13.55;74.07
75170;SHT31;63749;49.186;9.222;2024-02-14T12:53:01;13.48;74.54
75170;SHT31;63749;49.186;9.222;2024-02-14T12:55:27;13.34;74.48
75170;SHT31;63749;49.186;9.222;2024-02-14T12:57:54;13.21;75.18
75170;SHT31;63749;49.186;9.222;2024-02-14T13:00:19;13.11;75.38
75170;SHT31;63749;49.186;9.222;2024-02-14T13:02:47;13.03;75.78
75170;SHT31;63749;49.186;9.222;2024-02-14T13:05:13;12.99;75.65
75170;SHT31;63749;49.186;9.222;2024-02-14T13:07:38;12.97;75.52
75170;SHT31;63749;49.186;9.222;2024-02-14T13:10:04;13.03;75.68
75170;SHT31;63749;49.186;9.222;2024-02-14T13:12:30;12.99;75.85
75170;SHT31;63749;49.186;9.222;2024-02-14T13:14:55;12.97;76.26
75170;SHT31;63749;49.186;9.222;2024-02-14T13:17:21;13.04;76.36
75170;SHT31;63749;49.186;9.222;2024-02-14T13:19:46;13.17;76.19
75170;SHT31;63749;49.186;9.222;2024-02-14T13:22:14;13.37;75.19
75170;SHT31;63749;49.186;9.222;2024-02-14T13:24:40;13.48;74.57
75170;SHT31;63749;49.186;9.222;2024-02-14T13:27:05;13.37;75.03
75170;SHT31;63749;49.186;9.222;2024-02-14T13:29:31;13.43;74.97
75170;SHT31;63749;49.186;9.222;2024-02-14T13:31:56;13.43;74.68
75170;SHT31;63749;49.186;9.222;2024-02-14T13:34:22;13.47;74.53
75170;SHT31;63749;49.186;9.222;2024-02-14T13:36:47;13.58;74.13
75170;SHT31;63749;49.186;9.222;2024-02-14T13:39:13;13.71;73.75
75170;SHT31;63749;49.186;9.222;2024-02-14T13:41:39;13.86;73.50
75170;SHT31;63749;49.186;9.222;2024-02-14T13:44:08;13.88;73.38
75170;SHT31;63749;49.186;9.222;2024-02-14T13:46:34;13.81;73.57
75170;SHT31;63749;49.186;9.222;2024-02-14T13:48:59;13.83;73.30
75170;SHT31;63749;49.186;9.222;2024-02-14T13:51:25;13.89;73.18
75170;SHT31;63749;49.186;9.222;2024-02-14T13:53:52;13.98;72.74
75170;SHT31;63749;49.186;9.222;2024-02-14T13:56:18;13.90;72.12
75170;SHT31;63749;49.186;9.222;2024-02-14T13:58:46;13.88;72.54
75170;SHT31;63749;49.186;9.222;2024-02-14T14:01:12;13.82;72.93
75170;SHT31;63749;49.186;9.222;2024-02-14T14:03:37;14.01;72.58
75170;SHT31;63749;49.186;9.222;2024-02-14T14:06:03;14.05;72.26
75170;SHT31;63749;49.186;9.222;2024-02-14T14:08:31;14.05;72.24
75170;SHT31;63749;49.186;9.222;2024-02-14T14:10:56;14.01;72.37
75170;SHT31;63749;49.186;9.222;2024-02-14T14:13:21;13.90;72.69
75170;SHT31;63749;49.186;9.222;2024-02-14T14:15:47;13.94;72.80
75170;SHT31;63749;49.186;9.222;2024-02-14T14:18:12;13.95;72.95
75170;SHT31;63749;49.186;9.222;2024-02-14T14:20:38;13.94;72.96
75170;SHT31;63749;49.186;9.222;2024-02-14T14:23:03;13.89;72.55
75170;SHT31;63749;49.186;9.222;2024-02-14T14:25:29;13.85;72.97
75170;SHT31;63749;49.186;9.222;2024-02-14T14:27:57;13.82;73.24
75170;SHT31;63749;49.186;9.222;2024-02-14T14:30:23;13.78;73.68
75170;SHT31;63749;49.186;9.222;2024-02-14T14:32:48;13.79;73.66
75170;SHT31;63749;49.186;9.222;2024-02-14T14:35:14;13.68;74.08
75170;SHT31;63749;49.186;9.222;2024-02-14T14:37:40;13.64;74.29
75170;SHT31;63749;49.186;9.222;2024-02-14T14:40:05;13.55;74.80
75170;SHT31;63749;49.186;9.222;2024-02-14T14:42:33;13.54;74.80
75170;SHT31;63749;49.186;9.222;2024-02-14T14:44:58;13.62;74.67
75170;SHT31;63749;49.186;9.222;2024-02-14T14:47:23;13.57;74.89
75170;SHT31;63749;49.186;9.222;2024-02-14T14:49:49;13.38;75.56
75170;SHT31;63749;49.186;9.222;2024-02-14T14:52:14;13.43;75.64
75170;SHT31;63749;49.186;9.222;2024-02-14T14:54:39;13.50;75.53
75170;SHT31;63749;49.186;9.222;2024-02-14T14:57:05;13.48;75.97
75170;SHT31;63749;49.186;9.222;2024-02-14T14:59:36;13.57;76.68
75170;SHT31;63749;49.186;9.222;2024-02-14T15:02:02;13.51;76.82
75170;SHT31;63749;49.186;9.222;2024-02-14T15:04:27;13.44;77.14
75170;SHT31;63749;49.186;9.222;2024-02-14T15:06:53;13.48;77.27
75170;SHT31;63749;49.186;9.222;2024-02-14T15:09:19;13.44;77.51
75170;SHT31;63749;49.186;9.222;2024-02-14T15:11:45;13.44;77.54
75170;SHT31;63749;49.186;9.222;2024-02-14T15:14:10;13.41;77.91
75170;SHT31;63749;49.186;9.222;2024-02-14T15:16:36;13.40;78.12
75170;SHT31;63749;49.186;9.222;2024-02-14T15:19:01;13.43;77.98
75170;SHT31;63749;49.186;9.222;2024-02-14T15:21:26;13.43;77.85
75170;SHT31;63749;49.186;9.222;2024-02-14T15:23:52;13.28;78.76
75170;SHT31;63749;49.186;9.222;2024-02-14T15:26:17;13.28;78.46
75170;SHT31;63749;49.186;9.222;2024-02-14T15:28:43;13.33;78.54
75170;SHT31;63749;49.186;9.222;2024-02-14T15:31:10;13.34;78.68
75170;SHT31;63749;49.186;9.222;2024-02-14T15:33:54;13.30;78.81
75170;SHT31;63749;49.186;9.222;2024-02-14T15:36:21;13.24;79.21